Time;durP1;ratioP1;P1;durP2;ratioP2;P2;SDS_P1;SDS_P2;PMS_P1;PMS_P2;Temp;Humidity;BMP_temperature;BMP_pressure;BME280_temperature;BME280_humidity;BME280_pressure;Samples;Min_cycle;Max_cycle;Signal;HPM_P1;HPM_P2
2022/01/18 00:01:53;;;;;;;3.85;1.00;;;3.60;78.10;;;;;;4995211;28;20405;-70
2022/01/18 00:04:20;;;;;;;5.50;1.30;;;3.70;78.00;;;;;;4996943;28;20030;-70
2022/01/18 00:06:50;;;;;;;3.25;1.20;;;3.70;77.90;;;;;;4992844;28;20381;-69
2022/01/18 00:09:19;;;;;;;2.13;1.00;;;3.70;77.10;;;;;;4996464;28;20026;-70
2022/01/18 00:11:52;;;;;;;4.18;1.33;;;3.70;77.00;;;;;;4997260;28;20453;-69
2022/01/18 00:14:41;;;;;;;6.57;1.10;;;3.80;77.10;;;;;;4995405;28;20046;-71
2022/01/18 00:17:40;;;;;;;4.30;1.15;;;3.70;76.40;;;;;;5004826;28;20112;-71
2022/01/18 00:19:57;;;;;;;5.38;1.10;;;3.70;78.40;;;;;;5002903;28;20033;-72
2022/01/18 00:22:27;;;;;;;4.88;1.67;;;3.80;78.70;;;;;;4998402;28;20049;-73
2022/01/18 00:24:53;;;;;;;5.72;1.75;;;3.90;77.90;;;;;;4999292;28;20044;-74
2022/01/18 00:27:19;;;;;;;3.80;1.40;;;3.60;77.70;;;;;;5003837;28;20048;-75
2022/01/18 00:30:01;;;;;;;3.53;1.05;;;3.30;79.50;;;;;;5003566;28;20539;-75
2022/01/18 00:32:44;;;;;;;5.00;1.33;;;3.20;78.30;;;;;;5004688;28;20499;-75
2022/01/18 00:35:13;;;;;;;2.80;1.10;;;3.30;78.30;;;;;;5003389;28;20033;-74
2022/01/18 00:37:51;;;;;;;3.80;1.50;;;3.50;78.50;;;;;;5003211;28;20038;-73
2022/01/18 00:40:16;;;;;;;5.28;1.63;;;3.70;79.60;;;;;;5005047;28;20034;-74
2022/01/18 00:42:42;;;;;;;3.65;1.13;;;3.70;78.60;;;;;;4994578;28;20447;-73
2022/01/18 00:45:08;;;;;;;4.43;1.42;;;3.70;78.90;;;;;;4998621;28;20380;-72
2022/01/18 00:47:34;;;;;;;3.83;1.40;;;3.70;79.70;;;;;;5002323;28;20081;-73
2022/01/18 00:50:06;;;;;;;4.43;1.38;;;3.70;79.80;;;;;;5003964;28;20612;-73
2022/01/18 00:52:35;;;;;;;;;;;3.70;78.50;;;;;;5001137;28;20079;-73
2022/01/18 00:55:01;;;;;;;5.38;1.30;;;3.60;78.20;;;;;;4998698;28;19917;-75
2022/01/18 00:57:28;;;;;;;7.50;1.60;;;3.70;78.40;;;;;;5000247;28;20061;-74
2022/01/18 00:59:53;;;;;;;5.38;1.40;;;3.60;77.20;;;;;;4999564;28;20093;-74
2022/01/18 01:02:19;;;;;;;4.60;1.63;;;3.60;78.80;;;;;;4995202;28;20454;-74
2022/01/18 01:04:48;;;;;;;5.85;1.63;;;3.50;79.30;;;;;;5002331;28;20452;-73
2022/01/18 01:07:20;;;;;;;5.55;1.50;;;3.30;78.50;;;;;;5000427;28;20085;-74
2022/01/18 01:09:47;;;;;;;6.15;1.67;;;3.30;78.50;;;;;;5003725;28;20025;-73
2022/01/18 01:12:14;;;;;;;5.22;1.35;;;3.40;79.10;;;;;;5000617;28;20057;-73
2022/01/18 01:14:41;;;;;;;4.10;1.67;;;3.50;77.80;;;;;;5000584;28;20033;-72
2022/01/18 01:32:13;;;;;;;4.38;1.48;;;3.60;77.70;;;;;;5000993;28;20080;-71
2022/01/18 01:34:49;;;;;;;5.15;1.30;;;3.40;77.70;;;;;;4971229;28;20137;-69
2022/01/18 01:45:16;;;;;;;4.60;1.38;;;3.60;78.10;;;;;;4996519;28;20100;-70
2022/01/18 01:47:46;;;;;;;2.90;1.20;;;3.70;76.40;;;;;;5003443;28;20038;-71
2022/01/18 01:50:17;;;;;;;4.60;1.48;;;3.70;76.90;;;;;;4999944;28;20141;-70
2022/01/18 01:52:54;;;;;;;3.67;1.15;;;3.60;77.90;;;;;;4998553;28;20043;-71
2022/01/18 01:55:21;;;;;;;4.78;1.30;;;3.60;78.10;;;;;;5012384;28;20572;-69
2022/01/18 01:57:47;;;;;;;5.68;1.50;;;3.60;78.00;;;;;;4995902;28;20536;-70
2022/01/18 02:00:17;;;;;;;11.60;6.05;;;3.60;77.70;;;;;;4999013;28;20101;-71
2022/01/18 02:02:43;;;;;;;3.33;1.52;;;3.50;76.60;;;;;;4997464;28;20045;-70
2022/01/18 02:05:09;;;;;;;2.45;1.10;;;3.50;77.00;;;;;;4999217;28;20144;-71
2022/01/18 02:07:35;;;;;;;2.65;1.00;;;3.60;77.80;;;;;;4996450;28;20620;-71
2022/01/18 02:10:01;;;;;;;3.70;1.40;;;3.60;78.00;;;;;;4999528;28;20040;-71
2022/01/18 02:12:30;;;;;;;5.45;1.17;;;3.60;77.90;;;;;;4997973;28;20026;-71
2022/01/18 02:14:59;;;;;;;5.10;1.17;;;3.60;77.40;;;;;;4999170;28;20042;-71
2022/01/18 02:22:56;;;;;;;3.38;1.50;;;3.50;78.10;;;;;;4999117;28;20255;-72
2022/01/18 02:25:22;;;;;;;3.70;1.23;;;3.40;79.30;;;;;;5000952;28;20479;-72
2022/01/18 02:27:48;;;;;;;3.85;1.25;;;3.50;78.10;;;;;;4999953;28;20779;-71
2022/01/18 02:30:14;;;;;;;3.78;1.05;;;3.40;78.30;;;;;;5000198;28;20037;-70
2022/01/18 02:32:39;;;;;;;5.80;1.30;;;3.50;76.60;;;;;;4998922;28;20421;-72
2022/01/18 02:35:05;;;;;;;3.42;1.05;;;3.50;76.30;;;;;;4998408;28;20061;-72
2022/01/18 02:37:31;;;;;;;5.13;1.60;;;3.50;77.50;;;;;;4998114;28;20084;-72
2022/01/18 02:39:58;;;;;;;2.00;0.95;;;3.60;78.00;;;;;;4996584;28;20507;-72
2022/01/18 02:42:29;;;;;;;3.63;0.95;;;3.50;77.90;;;;;;4995765;28;20029;-72
2022/01/18 02:44:55;;;;;;;4.43;1.30;;;3.60;77.50;;;;;;4995409;28;20286;-72
2022/01/18 02:47:22;;;;;;;4.38;1.35;;;3.60;75.80;;;;;;4999154;28;20042;-72
2022/01/18 02:49:48;;;;;;;5.68;1.42;;;3.60;76.10;;;;;;4999800;28;20054;-72
2022/01/18 02:52:16;;;;;;;2.75;1.20;;;3.60;76.10;;;;;;5000011;28;20167;-72
2022/01/18 02:54:44;;;;;;;5.47;1.50;;;3.50;76.60;;;;;;5001415;28;20025;-72
2022/01/18 02:57:13;;;;;;;6.90;1.60;;;3.40;75.80;;;;;;4999850;28;20801;-72
2022/01/18 02:59:49;;;;;;;4.50;1.08;;;3.40;76.00;;;;;;5000745;28;20030;-70
2022/01/18 03:05:13;;;;;;;2.35;0.98;;;3.30;77.80;;;;;;5000218;28;20041;-71
2022/01/18 03:07:40;;;;;;;4.18;0.82;;;3.10;75.30;;;;;;4999948;28;20088;-71
2022/01/18 03:10:08;;;;;;;4.90;1.58;;;3.10;77.10;;;;;;5001159;28;20034;-71
2022/01/18 03:12:34;;;;;;;6.00;1.38;;;3.30;77.90;;;;;;4999735;28;20027;-71
2022/01/18 03:15:00;;;;;;;6.45;1.35;;;3.20;77.70;;;;;;4995845;28;20034;-71
2022/01/18 03:17:26;;;;;;;5.05;1.25;;;3.30;77.90;;;;;;5001594;28;20124;-71
2022/01/18 03:19:51;;;;;;;5.03;1.40;;;3.30;77.70;;;;;;4995823;28;20038;-71
2022/01/18 03:22:17;;;;;;;5.22;1.40;;;3.30;78.90;;;;;;4998759;28;20397;-72
2022/01/18 03:29:53;;;;;;;5.57;1.38;;;3.40;78.20;;;;;;4998931;28;20828;-72
2022/01/18 03:32:19;;;;;;;4.25;1.27;;;3.40;75.40;;;;;;4995247;28;20022;-71
2022/01/18 03:34:45;;;;;;;2.92;1.08;;;3.30;75.40;;;;;;4995907;28;20491;-71
2022/01/18 03:37:10;;;;;;;4.72;1.30;;;3.30;75.10;;;;;;4991236;28;20042;-72
2022/01/18 03:39:36;;;;;;;4.35;1.45;;;3.40;75.70;;;;;;4999545;28;20507;-72
2022/01/18 03:42:47;;;;;;;4.10;1.40;;;3.40;75.90;;;;;;4998994;28;20026;-72
2022/01/18 03:44:49;;;;;;;4.93;1.20;;;3.50;76.60;;;;;;4988368;28;20188;-72
2022/01/18 03:47:16;;;;;;;3.05;1.05;;;3.30;77.30;;;;;;4993732;28;20034;-72
2022/01/18 03:49:42;;;;;;;5.18;1.50;;;3.10;78.70;;;;;;5002451;28;20071;-72
2022/01/18 03:52:08;;;;;;;3.88;1.27;;;3.10;79.20;;;;;;4997897;28;20034;-72
2022/01/18 03:54:41;;;;;;;6.55;1.20;;;3.10;79.00;;;;;;4998384;28;20026;-72
2022/01/18 03:57:07;;;;;;;4.25;1.30;;;3.20;79.20;;;;;;4996359;28;20053;-72
2022/01/18 03:59:33;;;;;;;4.40;1.52;;;3.20;77.60;;;;;;5000591;28;20156;-72
2022/01/18 04:01:59;;;;;;;2.35;0.98;;;3.30;77.60;;;;;;5002906;28;20037;-71
2022/01/18 04:04:24;;;;;;;3.63;1.23;;;3.30;78.30;;;;;;4996237;28;20064;-73
2022/01/18 04:06:50;;;;;;;6.05;3.13;;;3.40;77.40;;;;;;5000028;28;20037;-73
2022/01/18 04:09:16;;;;;;;5.68;2.25;;;3.30;78.30;;;;;;5000555;28;20381;-73
2022/01/18 04:11:42;;;;;;;4.63;1.73;;;3.20;78.40;;;;;;4994765;28;20117;-73
2022/01/18 04:14:08;;;;;;;5.28;1.20;;;3.10;78.60;;;;;;5000207;28;20717;-72
2022/01/18 04:16:42;;;;;;;6.65;1.30;;;3.10;77.60;;;;;;4998481;28;20120;-72
2022/01/18 04:27:39;;;;;;;10.07;1.30;;;2.40;81.80;;;;;;5001196;28;20049;-72
2022/01/18 04:30:05;;;;;;;4.72;1.40;;;2.60;80.70;;;;;;5017216;28;20405;-72
2022/01/18 04:32:31;;;;;;;7.68;2.20;;;2.60;81.50;;;;;;5003236;28;20042;-72
2022/01/18 04:34:57;;;;;;;5.47;1.40;;;2.60;80.80;;;;;;5004258;28;20037;-71
2022/01/18 04:37:23;;;;;;;5.95;2.40;;;2.60;81.70;;;;;;5005669;28;20042;-72
2022/01/18 04:39:49;;;;;;;6.53;1.90;;;2.50;81.40;;;;;;5006498;28;20340;-72
2022/01/18 04:42:31;;;;;;;6.90;2.10;;;2.50;82.00;;;;;;5004520;28;20076;-72
2022/01/18 04:50:25;;;;;;;4.78;1.25;;;2.30;84.10;;;;;;5002900;28;20064;-72
2022/01/18 04:52:50;;;;;;;5.05;1.40;;;2.20;85.20;;;;;;5002466;28;20030;-72
2022/01/18 04:55:18;;;;;;;4.47;1.50;;;2.20;85.70;;;;;;5002473;28;20104;-72
2022/01/18 04:57:53;;;;;;;5.68;1.45;;;2.20;85.70;;;;;;4998860;28;20037;-72
2022/01/18 05:00:23;;;;;;;3.80;1.20;;;2.20;86.10;;;;;;4999716;28;20113;-72
2022/01/18 05:02:48;;;;;;;2.50;0.82;;;1.80;86.60;;;;;;4998093;28;20042;-72
2022/01/18 05:05:23;;;;;;;7.10;1.75;;;1.60;88.00;;;;;;4994697;28;20042;-71
2022/01/18 05:07:52;;;;;;;6.53;1.73;;;1.70;88.70;;;;;;4996917;28;20038;-70
2022/01/18 05:10:23;;;;;;;3.90;1.95;;;1.70;88.50;;;;;;5002324;28;20480;-69
2022/01/18 05:12:52;;;;;;;4.68;1.73;;;1.50;88.60;;;;;;5003076;28;20042;-70
2022/01/18 05:15:44;;;;;;;3.80;1.45;;;1.40;89.60;;;;;;5001047;28;20109;-69
2022/01/18 05:21:19;;;;;;;8.52;1.63;;;1.50;90.00;;;;;;4975420;28;20049;-70
2022/01/18 05:23:45;;;;;;;7.05;1.63;;;1.60;89.40;;;;;;5002165;28;20489;-70
2022/01/18 05:26:10;;;;;;;4.30;1.60;;;1.50;89.30;;;;;;4998056;28;20101;-71
2022/01/18 05:28:36;;;;;;;4.93;2.05;;;1.40;90.00;;;;;;5001718;28;20045;-71
2022/01/18 05:31:01;;;;;;;8.10;1.85;;;1.50;90.20;;;;;;5000689;28;20464;-71
2022/01/18 05:33:27;;;;;;;6.05;1.90;;;1.60;90.00;;;;;;4998594;28;20492;-70
2022/01/18 05:35:54;;;;;;;7.35;2.03;;;1.70;90.00;;;;;;5001697;28;20443;-70
2022/01/18 05:38:20;;;;;;;4.15;1.65;;;1.70;89.50;;;;;;4998181;28;20041;-70
2022/01/18 05:40:46;;;;;;;7.70;1.40;;;1.70;88.70;;;;;;4996077;28;20048;-69
2022/01/18 05:43:15;;;;;;;4.35;1.50;;;1.40;88.90;;;;;;5003020;28;20022;-69
2022/01/18 05:45:41;;;;;;;6.47;1.50;;;1.50;89.80;;;;;;5000925;28;20672;-70
2022/01/18 05:48:06;;;;;;;6.65;1.20;;;1.40;89.90;;;;;;5001113;28;20562;-69
2022/01/18 05:50:32;;;;;;;3.95;1.00;;;1.40;90.40;;;;;;5003659;28;20073;-70
2022/01/18 05:52:57;;;;;;;5.50;1.80;;;1.50;90.30;;;;;;5001273;28;20026;-69
2022/01/18 05:55:23;;;;;;;6.55;1.50;;;1.70;90.00;;;;;;4998125;28;20108;-69
2022/01/18 05:57:49;;;;;;;5.28;1.85;;;1.90;90.00;;;;;;4999192;28;20507;-69
2022/01/18 06:00:26;;;;;;;5.88;1.90;;;1.90;90.20;;;;;;4995938;28;20030;-70
2022/01/18 06:08:09;;;;;;;8.43;2.97;;;1.80;89.60;;;;;;4996839;28;20655;-72
2022/01/18 06:10:35;;;;;;;3.83;2.00;;;1.90;90.80;;;;;;4997585;28;20044;-72
2022/01/18 06:13:02;;;;;;;8.32;1.70;;;1.80;90.30;;;;;;4996469;28;20033;-71
2022/01/18 06:15:29;;;;;;;17.67;8.98;;;1.70;90.40;;;;;;4996012;28;20041;-71
2022/01/18 06:17:55;;;;;;;30.58;19.20;;;1.70;89.90;;;;;;4999562;28;20542;-71
2022/01/18 06:20:21;;;;;;;32.42;14.13;;;1.80;89.50;;;;;;5002211;28;20018;-72
2022/01/18 06:22:46;;;;;;;20.40;12.85;;;1.90;89.80;;;;;;4999921;28;20062;-71
2022/01/18 06:25:12;;;;;;;9.88;4.80;;;2.00;89.70;;;;;;5000646;28;20056;-72
2022/01/18 06:27:38;;;;;;;8.05;1.80;;;2.10;89.30;;;;;;5001141;28;20125;-71
2022/01/18 06:30:10;;;;;;;10.65;4.43;;;2.20;87.10;;;;;;4998616;28;20480;-72
2022/01/18 06:32:37;;;;;;;12.18;6.28;;;2.10;89.10;;;;;;5003947;28;20121;-70
2022/01/18 06:35:03;;;;;;;7.35;3.53;;;2.00;89.20;;;;;;5003748;28;20037;-73
2022/01/18 06:37:29;;;;;;;6.35;2.17;;;2.00;89.70;;;;;;5004279;28;20057;-73
2022/01/18 06:39:57;;;;;;;12.98;9.75;;;2.00;88.70;;;;;;5004268;28;20034;-73
2022/01/18 06:42:24;;;;;;;9.77;4.28;;;1.80;89.30;;;;;;5001441;28;20022;-74
2022/01/18 06:44:50;;;;;;;9.40;5.38;;;1.90;90.00;;;;;;5002463;28;20026;-74
2022/01/18 06:47:16;;;;;;;12.38;5.47;;;2.00;89.60;;;;;;4999041;28;20046;-73
2022/01/18 06:49:41;;;;;;;12.68;6.53;;;2.00;89.80;;;;;;4999037;28;20045;-73
2022/01/18 06:52:07;;;;;;;10.23;4.53;;;2.00;90.00;;;;;;5001401;28;20038;-73
2022/01/18 06:54:33;;;;;;;8.75;4.10;;;2.10;89.90;;;;;;5002442;28;20026;-73
2022/01/18 06:56:58;;;;;;;9.55;3.58;;;2.20;89.70;;;;;;4999359;28;20042;-72
2022/01/18 06:59:24;;;;;;;6.38;2.80;;;2.20;89.60;;;;;;4999994;28;20116;-72
2022/01/18 07:01:50;;;;;;;7.10;2.00;;;2.30;89.90;;;;;;5000890;28;20117;-74
2022/01/18 07:04:16;;;;;;;7.43;2.28;;;2.10;90.30;;;;;;5002823;28;20042;-73
2022/01/18 07:06:41;;;;;;;6.93;2.05;;;2.20;90.60;;;;;;4997360;28;20432;-75
2022/01/18 07:09:07;;;;;;;10.60;2.03;;;2.30;90.90;;;;;;4995166;28;20458;-68
2022/01/18 07:11:36;;;;;;;7.35;3.30;;;2.20;91.40;;;;;;5000542;28;20653;-75
2022/01/18 07:14:02;;;;;;;9.32;3.22;;;2.30;91.20;;;;;;5001939;28;20095;-73
2022/01/18 07:16:27;;;;;;;20.48;9.48;;;2.30;90.70;;;;;;4997845;28;20196;-73
2022/01/18 07:18:53;;;;;;;4.50;1.55;;;2.40;90.80;;;;;;4998742;28;20030;-73
2022/01/18 07:21:18;;;;;;;10.98;2.55;;;2.40;90.70;;;;;;5002363;28;20459;-71
2022/01/18 07:23:44;;;;;;;3.50;1.42;;;2.50;90.80;;;;;;4992123;28;20048;-71
2022/01/18 07:26:10;;;;;;;3.47;1.17;;;2.60;90.60;;;;;;4995104;28;20018;-72
2022/01/18 07:28:35;;;;;;;6.88;1.60;;;2.60;90.80;;;;;;4998651;28;20179;-72
2022/01/18 07:31:01;;;;;;;7.90;1.40;;;2.60;90.40;;;;;;4992548;28;20473;-71
2022/01/18 07:33:27;;;;;;;7.43;1.70;;;2.60;89.80;;;;;;4991988;28;20447;-72
2022/01/18 07:35:52;;;;;;;5.70;1.75;;;2.60;90.10;;;;;;4992312;28;20040;-71
2022/01/18 07:38:18;;;;;;;6.85;1.50;;;2.60;90.30;;;;;;4996462;28;20045;-70
2022/01/18 07:40:46;;;;;;;6.03;1.42;;;2.70;90.20;;;;;;4995451;28;20716;-71
2022/01/18 07:43:16;;;;;;;4.63;1.30;;;2.70;90.00;;;;;;4997305;28;20019;-71
2022/01/18 07:45:43;;;;;;;5.55;1.55;;;2.80;90.50;;;;;;4994593;28;20127;-70
2022/01/18 07:48:09;;;;;;;4.82;1.40;;;2.90;88.40;;;;;;4995753;28;20034;-71
2022/01/18 07:50:34;;;;;;;8.07;1.80;;;3.10;89.30;;;;;;4999064;28;20424;-70
2022/01/18 07:53:00;;;;;;;4.93;1.30;;;3.30;88.90;;;;;;5000036;28;20022;-71
2022/01/18 07:55:26;;;;;;;4.38;1.50;;;3.50;87.10;;;;;;4997846;28;20038;-71
2022/01/18 07:57:52;;;;;;;5.22;1.38;;;3.50;85.90;;;;;;4995911;28;20739;-72
2022/01/18 08:00:18;;;;;;;7.18;2.58;;;3.60;86.40;;;;;;4997141;28;20626;-72
2022/01/18 08:02:44;;;;;;;5.00;2.55;;;3.80;85.90;;;;;;4994957;28;20217;-71
2022/01/18 08:05:12;;;;;;;12.13;6.55;;;4.10;85.20;;;;;;4997364;28;20068;-71
2022/01/18 08:07:39;;;;;;;13.07;6.68;;;4.10;84.50;;;;;;4998091;28;20057;-71
2022/01/18 08:10:06;;;;;;;9.13;2.58;;;4.10;85.30;;;;;;4997495;28;20121;-72
2022/01/18 08:12:32;;;;;;;4.80;1.95;;;4.00;85.90;;;;;;4995204;28;20120;-72
2022/01/18 08:15:11;;;;;;;5.75;1.70;;;4.10;85.20;;;;;;4994827;28;20690;-72
2022/01/18 08:17:37;;;;;;;6.70;2.15;;;4.30;84.50;;;;;;4994418;28;20049;-71
2022/01/18 08:20:03;;;;;;;10.57;2.70;;;4.30;84.60;;;;;;4996504;28;20030;-71
2022/01/18 08:22:28;;;;;;;11.02;3.50;;;4.50;84.50;;;;;;4993245;28;20417;-71
2022/01/18 08:24:54;;;;;;;9.18;3.20;;;4.80;82.30;;;;;;4995820;28;20034;-71
2022/01/18 08:27:21;;;;;;;11.10;5.93;;;5.00;81.10;;;;;;4999847;28;20338;-70
2022/01/18 08:29:47;;;;;;;8.95;4.18;;;5.10;81.10;;;;;;4997722;28;20037;-71
2022/01/18 08:32:12;;;;;;;17.65;3.92;;;5.10;80.60;;;;;;4998184;28;20022;-71
2022/01/18 08:34:38;;;;;;;10.13;3.42;;;5.30;79.50;;;;;;5001911;28;20115;-71
2022/01/18 08:37:04;;;;;;;11.25;2.55;;;5.40;78.30;;;;;;5003767;28;20030;-71
2022/01/18 08:39:29;;;;;;;6.35;1.88;;;5.30;76.40;;;;;;5005332;28;20022;-70
2022/01/18 08:41:55;;;;;;;5.50;2.28;;;5.00;76.90;;;;;;5002744;28;20069;-71
2022/01/18 08:44:21;;;;;;;8.48;2.28;;;5.10;78.50;;;;;;5002711;28;20030;-71
2022/01/18 08:46:46;;;;;;;5.57;1.30;;;5.40;77.50;;;;;;5003607;28;20046;-70
2022/01/18 08:49:12;;;;;;;4.65;1.40;;;5.40;76.10;;;;;;4997997;28;20037;-71
2022/01/18 08:51:38;;;;;;;3.47;1.25;;;5.20;75.70;;;;;;4997514;28;20635;-70
2022/01/18 08:54:04;;;;;;;5.63;1.35;;;5.00;77.00;;;;;;4998183;28;20030;-72
2022/01/18 08:56:30;;;;;;;5.88;1.58;;;5.00;78.00;;;;;;4996357;28;20038;-70
2022/01/18 08:58:57;;;;;;;3.90;1.10;;;5.00;77.00;;;;;;4999053;28;20034;-69
2022/01/18 09:01:22;;;;;;;4.63;1.30;;;5.10;78.40;;;;;;4997360;28;20128;-70
2022/01/18 09:03:50;;;;;;;5.85;1.92;;;5.10;78.50;;;;;;4995539;28;20071;-70
2022/01/18 09:06:17;;;;;;;7.55;1.73;;;4.90;77.90;;;;;;5003005;28;20092;-71
2022/01/18 09:08:43;;;;;;;7.25;1.50;;;4.90;78.30;;;;;;4998456;28;20077;-70
2022/01/18 09:11:13;;;;;;;9.05;1.67;;;4.80;77.70;;;;;;5000619;28;20027;-70
2022/01/18 09:13:40;;;;;;;4.05;1.13;;;4.50;78.90;;;;;;4999292;28;20034;-70
2022/01/18 09:16:09;;;;;;;5.05;1.38;;;4.50;79.40;;;;;;4998784;28;20064;-69
2022/01/18 09:18:36;;;;;;;4.18;1.40;;;4.40;80.80;;;;;;4997868;28;20088;-70
2022/01/18 09:21:01;;;;;;;5.35;1.70;;;4.40;80.50;;;;;;4997342;28;20388;-70
2022/01/18 09:23:28;;;;;;;4.20;1.65;;;4.30;81.00;;;;;;4995311;28;20026;-69
2022/01/18 09:25:53;;;;;;;5.88;1.45;;;4.20;83.30;;;;;;4995547;28;20030;-69
2022/01/18 09:28:19;;;;;;;8.15;2.22;;;4.10;82.90;;;;;;4994930;28;21171;-70
2022/01/18 09:30:45;;;;;;;4.93;1.65;;;4.10;82.80;;;;;;4996463;28;20030;-70
2022/01/18 09:33:11;;;;;;;8.90;1.75;;;4.10;81.80;;;;;;5000366;28;20034;-70
2022/01/18 09:35:38;;;;;;;3.75;1.33;;;4.00;83.10;;;;;;4998594;28;20018;-70
2022/01/18 09:38:05;;;;;;;5.13;1.25;;;4.10;81.40;;;;;;5001161;28;20428;-70
2022/01/18 09:40:33;;;;;;;5.53;1.42;;;4.10;82.30;;;;;;5000370;28;20030;-70
2022/01/18 09:43:07;;;;;;;6.25;1.42;;;4.10;82.00;;;;;;5000022;28;20037;-70
2022/01/18 09:45:33;;;;;;;5.57;1.52;;;4.10;82.70;;;;;;4994857;28;20045;-70
2022/01/18 09:47:59;;;;;;;4.78;1.15;;;3.90;82.00;;;;;;4999156;28;20038;-70
2022/01/18 09:50:29;;;;;;;5.53;1.35;;;3.80;83.00;;;;;;4996921;28;20057;-69
2022/01/18 09:52:56;;;;;;;4.43;0.80;;;3.80;83.80;;;;;;5000082;28;20057;-70
2022/01/18 09:55:26;;;;;;;7.90;1.90;;;3.70;84.00;;;;;;4997525;28;20515;-70
2022/01/18 09:57:52;;;;;;;5.70;1.70;;;3.70;84.90;;;;;;5002633;28;20093;-70
2022/01/18 10:00:20;;;;;;;6.68;2.08;;;3.70;85.00;;;;;;4997797;28;20030;-70
2022/01/18 10:02:47;;;;;;;3.78;1.10;;;3.80;85.90;;;;;;4997081;28;20563;-70
2022/01/18 10:05:23;;;;;;;3.42;1.23;;;3.90;84.80;;;;;;5002117;28;20030;-70
2022/01/18 10:07:59;;;;;;;6.75;1.42;;;3.90;85.50;;;;;;5001475;28;20621;-71
2022/01/18 10:10:45;;;;;;;5.15;1.38;;;4.00;84.60;;;;;;4997339;28;20033;-70
2022/01/18 10:13:15;;;;;;;5.43;1.23;;;4.10;83.60;;;;;;4998847;28;20069;-70
2022/01/18 10:15:56;;;;;;;3.22;1.52;;;4.10;84.80;;;;;;4999705;28;20108;-70
2022/01/18 10:18:39;;;;;;;8.35;1.55;;;4.20;83.70;;;;;;4995071;28;20034;-71
2022/01/18 10:21:08;;;;;;;3.60;1.15;;;4.20;83.40;;;;;;4995985;28;20105;-71
2022/01/18 10:23:36;;;;;;;4.47;1.30;;;4.30;84.00;;;;;;4997688;28;20646;-71
2022/01/18 10:26:22;;;;;;;4.82;1.40;;;4.30;84.20;;;;;;4996014;28;20034;-71
2022/01/18 10:28:59;;;;;;;6.93;1.65;;;4.40;83.60;;;;;;4999114;28;20061;-70
2022/01/18 10:31:36;;;;;;;6.85;1.52;;;4.40;83.70;;;;;;4998665;28;20041;-71
2022/01/18 10:37:00;;;;;;;3.33;1.23;;;4.30;83.40;;;;;;4998381;28;20435;-71
2022/01/18 10:39:32;;;;;;;5.72;1.52;;;4.30;82.80;;;;;;4997459;28;20087;-70
2022/01/18 10:41:58;;;;;;;4.68;1.13;;;4.30;83.60;;;;;;4999795;28;20038;-70
2022/01/18 10:44:24;;;;;;;5.65;1.67;;;4.30;84.40;;;;;;4997837;28;20026;-70
2022/01/18 10:46:57;;;;;;;6.25;1.60;;;4.30;83.60;;;;;;4999763;28;20025;-70
2022/01/18 10:49:31;;;;;;;4.18;1.30;;;4.30;84.10;;;;;;4996836;28;20385;-70
2022/01/18 10:52:09;;;;;;;8.50;2.00;;;4.20;82.60;;;;;;4995636;28;20099;-71
2022/01/18 10:54:42;;;;;;;23.58;10.68;;;4.20;85.10;;;;;;4995970;28;20034;-71
2022/01/18 10:57:12;;;;;;;6.35;1.65;;;4.30;85.30;;;;;;4997454;28;20030;-71
2022/01/18 10:59:38;;;;;;;9.73;1.90;;;4.30;84.50;;;;;;4994145;28;20385;-71
2022/01/18 11:02:17;;;;;;;9.73;2.55;;;4.30;86.00;;;;;;4992314;28;20026;-70
2022/01/18 11:04:55;;;;;;;6.25;1.90;;;4.30;86.30;;;;;;4997258;28;20057;-71
2022/01/18 11:07:22;;;;;;;9.57;2.58;;;4.20;86.70;;;;;;4996723;28;20121;-71
2022/01/18 11:09:49;;;;;;;5.07;1.58;;;4.20;87.70;;;;;;4998704;28;20032;-70
2022/01/18 11:12:15;;;;;;;10.43;2.03;;;4.20;86.40;;;;;;4994702;28;20485;-70
2022/01/18 11:14:45;;;;;;;7.75;1.98;;;4.30;86.10;;;;;;4996009;28;20051;-72
2022/01/18 11:17:20;;;;;;;8.50;2.50;;;4.40;87.20;;;;;;4996981;28;20038;-70
2022/01/18 11:19:48;;;;;;;10.23;2.05;;;4.40;87.40;;;;;;4998957;28;20064;-71
2022/01/18 11:22:16;;;;;;;5.22;2.00;;;4.40;85.90;;;;;;4997067;28;20041;-71
2022/01/18 11:24:45;;;;;;;9.13;1.67;;;4.50;86.50;;;;;;4998321;28;20096;-70
2022/01/18 11:27:14;;;;;;;8.30;1.60;;;4.40;84.70;;;;;;4996003;28;20026;-70
2022/01/18 11:29:44;;;;;;;9.20;1.83;;;4.40;85.20;;;;;;4995929;28;20026;-69
2022/01/18 11:32:11;;;;;;;6.40;1.80;;;4.40;86.10;;;;;;4993012;28;20034;-71
2022/01/18 11:34:57;;;;;;;5.20;1.70;;;4.50;85.60;;;;;;4998901;28;20496;-70
2022/01/18 11:37:54;;;;;;;7.22;2.05;;;4.50;84.70;;;;;;4994631;28;20030;-70
2022/01/18 11:40:20;;;;;;;7.63;1.80;;;4.50;85.90;;;;;;4993809;28;20120;-71
2022/01/18 11:42:52;;;;;;;9.77;1.90;;;4.50;85.30;;;;;;4991966;28;20033;-69
2022/01/18 11:45:37;;;;;;;8.35;1.95;;;4.50;86.50;;;;;;4994994;28;20060;-70
2022/01/18 11:48:23;;;;;;;5.45;2.05;;;4.50;87.00;;;;;;4995018;28;20057;-70
2022/01/18 11:51:06;;;;;;;4.68;1.48;;;4.50;86.10;;;;;;4994960;28;20062;-71
2022/01/18 11:53:55;;;;;;;5.82;2.05;;;4.60;85.90;;;;;;4991620;28;20026;-71
2022/01/18 11:56:32;;;;;;;3.60;1.52;;;4.60;87.40;;;;;;4995108;28;20030;-70
2022/01/18 11:59:19;;;;;;;5.63;1.70;;;4.70;85.00;;;;;;4995205;28;20042;-71
2022/01/18 12:01:50;;;;;;;5.93;2.08;;;4.70;85.00;;;;;;4994570;28;20022;-71
2022/01/18 12:07:10;;;;;;;4.65;1.75;;;4.80;85.70;;;;;;4994293;28;20507;-72
2022/01/18 12:09:41;;;;;;;7.75;1.55;;;4.80;82.90;;;;;;4995228;28;20042;-70
2022/01/18 12:12:41;;;;;;;5.40;2.05;;;4.70;84.30;;;;;;4998032;28;20077;-71
2022/01/18 12:15:15;;;;;;;6.60;1.75;;;4.70;83.90;;;;;;5013147;28;20472;-71
2022/01/18 12:17:56;;;;;;;5.10;1.50;;;4.70;84.40;;;;;;4999520;28;20112;-71
2022/01/18 12:20:40;;;;;;;8.63;2.40;;;4.70;84.50;;;;;;5001424;28;20021;-70
2022/01/18 12:23:10;;;;;;;8.40;2.40;;;4.80;83.80;;;;;;4999213;28;20026;-71
2022/01/18 12:26:03;;;;;;;8.35;1.65;;;4.80;84.10;;;;;;4997323;28;20030;-71
2022/01/18 12:34:28;;;;;;;9.30;2.00;;;4.80;83.90;;;;;;4999370;28;20068;-70
2022/01/18 12:37:23;;;;;;;7.47;1.75;;;4.70;84.00;;;;;;5002323;28;20045;-69
2022/01/18 12:45:20;;;;;;;4.25;1.42;;;4.70;82.90;;;;;;4994786;28;20103;-70
2022/01/18 12:48:08;;;;;;;6.97;1.45;;;4.80;84.10;;;;;;5001056;28;20029;-71
2022/01/18 12:50:52;;;;;;;6.05;1.50;;;5.00;83.30;;;;;;4996981;28;20057;-70
2022/01/18 12:53:22;;;;;;;9.52;2.25;;;5.00;80.00;;;;;;5002711;28;20034;-72
2022/01/18 12:55:55;;;;;;;3.45;1.30;;;4.90;80.40;;;;;;4998869;28;20022;-71
2022/01/18 12:58:27;;;;;;;6.68;1.55;;;4.90;80.20;;;;;;4999732;28;20440;-69
2022/01/18 13:00:59;;;;;;;7.13;1.75;;;5.00;79.60;;;;;;5000376;28;20029;-70
2022/01/18 13:03:26;;;;;;;;;;;5.00;78.80;;;;;;5001106;28;20132;-70
2022/01/18 13:05:55;;;;;;;5.20;1.40;;;5.00;79.90;;;;;;4998138;28;19964;-72
2022/01/18 13:08:24;;;;;;;5.00;1.55;;;5.10;81.40;;;;;;4999270;28;20026;-69
2022/01/18 13:10:52;;;;;;;7.13;2.08;;;5.10;81.10;;;;;;5003368;28;20076;-71
2022/01/18 13:13:22;;;;;;;5.70;1.52;;;5.00;78.60;;;;;;4999012;28;20037;-71
2022/01/18 13:26:49;;;;;;;9.37;5.47;;;4.90;79.50;;;;;;4997508;28;20044;-70
2022/01/18 13:29:19;;;;;;;28.95;12.70;;;4.90;80.10;;;;;;4996992;28;20322;-72
2022/01/18 13:31:47;;;;;;;7.07;3.08;;;4.90;78.70;;;;;;4996318;28;20076;-74
2022/01/18 13:34:16;;;;;;;7.47;2.30;;;4.90;78.70;;;;;;4995411;28;20031;-71
2022/01/18 13:36:50;;;;;;;3.58;1.27;;;4.90;80.00;;;;;;4997961;28;20022;-72
2022/01/18 13:39:29;;;;;;;8.02;1.85;;;4.90;79.70;;;;;;4997975;28;20595;-70
2022/01/18 13:41:55;;;;;;;5.70;1.50;;;4.90;78.90;;;;;;4994134;28;20022;-70
2022/01/18 13:44:22;;;;;;;7.22;1.83;;;4.90;79.20;;;;;;4998371;28;20447;-70
2022/01/18 13:46:48;;;;;;;8.50;2.25;;;5.10;78.80;;;;;;4997933;28;20034;-70
2022/01/18 13:49:13;;;;;;;5.20;1.80;;;5.20;77.90;;;;;;4993994;28;23464;-69
2022/01/18 13:51:57;;;;;;;7.30;1.60;;;5.30;77.50;;;;;;4994666;28;20057;-71
2022/01/18 13:54:27;;;;;;;8.45;2.03;;;5.60;77.10;;;;;;4995486;28;20120;-69
2022/01/18 13:56:53;;;;;;;6.32;1.60;;;5.90;76.30;;;;;;4995066;28;20046;-71
2022/01/18 13:59:25;;;;;;;6.03;1.90;;;6.20;75.30;;;;;;4994829;28;20034;-71
2022/01/18 14:01:50;;;;;;;5.32;1.52;;;6.40;73.60;;;;;;4996430;28;20034;-70
2022/01/18 14:04:19;;;;;;;5.03;1.70;;;6.70;71.90;;;;;;4995657;28;20492;-71
2022/01/18 14:06:48;;;;;;;5.35;1.35;;;7.20;71.60;;;;;;4996492;28;20041;-70
2022/01/18 14:09:16;;;;;;;6.43;1.80;;;8.10;68.90;;;;;;5003347;28;20488;-68
2022/01/18 14:11:53;;;;;;;5.03;1.67;;;8.70;64.20;;;;;;5001001;28;20109;-70
2022/01/18 14:14:29;;;;;;;5.53;1.65;;;8.90;64.20;;;;;;5000236;28;20026;-72
2022/01/18 14:17:00;;;;;;;4.88;1.70;;;8.90;63.00;;;;;;5000143;28;20041;-72
2022/01/18 14:19:30;;;;;;;4.13;1.50;;;8.40;63.00;;;;;;5000507;28;20039;-75
2022/01/18 14:22:04;;;;;;;7.63;2.08;;;8.30;65.40;;;;;;5000739;28;20041;-72
2022/01/18 14:24:40;;;;;;;4.70;1.77;;;8.30;63.80;;;;;;4999835;28;20029;-72
2022/01/18 14:27:15;;;;;;;6.03;1.70;;;8.30;64.60;;;;;;4999410;28;20030;-73
2022/01/18 14:29:41;;;;;;;5.60;2.45;;;8.20;64.20;;;;;;5000070;28;20425;-69
2022/01/18 14:32:10;;;;;;;6.80;2.17;;;7.70;64.60;;;;;;5000925;28;20149;-70
2022/01/18 14:34:39;;;;;;;7.38;2.00;;;7.00;66.80;;;;;;5000623;28;20041;-71